sensor_id;sensor_type;location;lat;lon;timestamp;temperature;humidity
75430;DHT22;64127;51.488;5.462;2024-01-16T00:00:53;2.10;99.90
75430;DHT22;64127;51.488;5.462;2024-01-16T00:03:25;2.10;99.90
75430;DHT22;64127;51.488;5.462;2024-01-16T00:05:57;2.10;99.90
75430;DHT22;64127;51.488;5.462;2024-01-16T00:08:30;2.20;99.90
75430;DHT22;64127;51.488;5.462;2024-01-16T00:11:02;2.20;99.90
75430;DHT22;64127;51.488;5.462;2024-01-16T00:13:35;2.20;99.90
75430;DHT22;64127;51.488;5.462;2024-01-16T00:16:07;2.10;99.90
75430;DHT22;64127;51.488;5.462;2024-01-16T00:18:39;2.10;99.90
75430;DHT22;64127;51.488;5.462;2024-01-16T00:21:11;2.10;99.90
75430;DHT22;64127;51.488;5.462;2024-01-16T00:23:43;2.10;99.90
75430;DHT22;64127;51.488;5.462;2024-01-16T00:26:22;2.10;99.90
75430;DHT22;64127;51.488;5.462;2024-01-16T00:28:54;2.10;99.90
75430;DHT22;64127;51.488;5.462;2024-01-16T00:31:27;2.10;99.90
75430;DHT22;64127;51.488;5.462;2024-01-16T00:33:59;2.10;99.90
75430;DHT22;64127;51.488;5.462;2024-01-16T00:36:31;2.10;99.90
75430;DHT22;64127;51.488;5.462;2024-01-16T00:39:03;2.10;99.90
75430;DHT22;64127;51.488;5.462;2024-01-16T00:41:35;2.10;99.90
75430;DHT22;64127;51.488;5.462;2024-01-16T00:44:07;2.10;99.90
75430;DHT22;64127;51.488;5.462;2024-01-16T00:46:39;2.10;99.90
75430;DHT22;64127;51.488;5.462;2024-01-16T00:49:11;2.10;99.90
75430;DHT22;64127;51.488;5.462;2024-01-16T00:51:43;2.10;99.90
75430;DHT22;64127;51.488;5.462;2024-01-16T00:54:16;2.10;99.90
75430;DHT22;64127;51.488;5.462;2024-01-16T00:56:48;2.10;99.90
75430;DHT22;64127;51.488;5.462;2024-01-16T00:59:20;2.10;99.90
75430;DHT22;64127;51.488;5.462;2024-01-16T01:01:52;2.20;99.90
75430;DHT22;64127;51.488;5.462;2024-01-16T01:04:24;2.20;99.90
75430;DHT22;64127;51.488;5.462;2024-01-16T01:06:56;2.20;99.90
75430;DHT22;64127;51.488;5.462;2024-01-16T01:09:28;2.30;99.90
75430;DHT22;64127;51.488;5.462;2024-01-16T01:12:00;2.20;99.90
75430;DHT22;64127;51.488;5.462;2024-01-16T01:14:33;2.30;99.90
75430;DHT22;64127;51.488;5.462;2024-01-16T01:17:05;2.30;99.90
75430;DHT22;64127;51.488;5.462;2024-01-16T01:19:37;2.30;99.90
75430;DHT22;64127;51.488;5.462;2024-01-16T01:22:10;2.30;99.90
75430;DHT22;64127;51.488;5.462;2024-01-16T01:24:42;2.30;99.90
75430;DHT22;64127;51.488;5.462;2024-01-16T01:27:14;2.30;99.90
75430;DHT22;64127;51.488;5.462;2024-01-16T01:29:46;2.30;99.90
75430;DHT22;64127;51.488;5.462;2024-01-16T01:32:18;2.30;99.90
75430;DHT22;64127;51.488;5.462;2024-01-16T01:34:50;2.30;99.90
75430;DHT22;64127;51.488;5.462;2024-01-16T01:37:22;2.30;99.90
75430;DHT22;64127;51.488;5.462;2024-01-16T01:39:54;2.20;99.90
75430;DHT22;64127;51.488;5.462;2024-01-16T01:42:26;2.30;99.90
75430;DHT22;64127;51.488;5.462;2024-01-16T01:44:58;2.20;99.90
75430;DHT22;64127;51.488;5.462;2024-01-16T01:47:31;2.20;99.90
75430;DHT22;64127;51.488;5.462;2024-01-16T01:50:06;2.20;99.90
75430;DHT22;64127;51.488;5.462;2024-01-16T01:52:41;2.20;99.90
75430;DHT22;64127;51.488;5.462;2024-01-16T01:55:15;2.20;99.90
75430;DHT22;64127;51.488;5.462;2024-01-16T01:57:47;2.20;99.90
75430;DHT22;64127;51.488;5.462;2024-01-16T02:00:20;2.20;99.90
75430;DHT22;64127;51.488;5.462;2024-01-16T02:02:52;2.20;99.90
75430;DHT22;64127;51.488;5.462;2024-01-16T02:05:24;2.20;99.90
75430;DHT22;64127;51.488;5.462;2024-01-16T02:07:56;2.20;99.90
75430;DHT22;64127;51.488;5.462;2024-01-16T02:10:28;2.20;99.90
75430;DHT22;64127;51.488;5.462;2024-01-16T02:13:01;2.20;99.90
75430;DHT22;64127;51.488;5.462;2024-01-16T02:15:33;2.20;99.90
75430;DHT22;64127;51.488;5.462;2024-01-16T02:18:05;2.30;99.90
75430;DHT22;64127;51.488;5.462;2024-01-16T02:20:37;2.30;99.90
75430;DHT22;64127;51.488;5.462;2024-01-16T02:23:10;2.20;99.90
75430;DHT22;64127;51.488;5.462;2024-01-16T02:25:45;2.20;99.90
75430;DHT22;64127;51.488;5.462;2024-01-16T02:28:17;2.20;99.90
75430;DHT22;64127;51.488;5.462;2024-01-16T02:30:49;2.20;99.90
75430;DHT22;64127;51.488;5.462;2024-01-16T02:33:21;2.20;99.90
75430;DHT22;64127;51.488;5.462;2024-01-16T02:35:53;2.20;99.90
75430;DHT22;64127;51.488;5.462;2024-01-16T02:38:25;2.20;99.90
75430;DHT22;64127;51.488;5.462;2024-01-16T02:40:57;2.20;99.90
75430;DHT22;64127;51.488;5.462;2024-01-16T02:43:29;2.20;99.90
75430;DHT22;64127;51.488;5.462;2024-01-16T02:46:01;2.10;99.90
75430;DHT22;64127;51.488;5.462;2024-01-16T02:48:33;2.10;99.90
75430;DHT22;64127;51.488;5.462;2024-01-16T02:51:05;2.10;99.90
75430;DHT22;64127;51.488;5.462;2024-01-16T02:53:37;2.10;99.90
75430;DHT22;64127;51.488;5.462;2024-01-16T02:56:09;2.10;99.90
75430;DHT22;64127;51.488;5.462;2024-01-16T02:58:41;2.10;99.90
75430;DHT22;64127;51.488;5.462;2024-01-16T03:01:14;2.10;99.90
75430;DHT22;64127;51.488;5.462;2024-01-16T03:03:47;2.20;99.90
75430;DHT22;64127;51.488;5.462;2024-01-16T03:06:23;2.20;99.90
75430;DHT22;64127;51.488;5.462;2024-01-16T03:08:56;2.20;99.90
75430;DHT22;64127;51.488;5.462;2024-01-16T03:11:28;2.20;99.90
75430;DHT22;64127;51.488;5.462;2024-01-16T03:14:05;2.20;99.90
75430;DHT22;64127;51.488;5.462;2024-01-16T03:16:37;2.20;99.90
75430;DHT22;64127;51.488;5.462;2024-01-16T03:19:09;2.20;99.90
75430;DHT22;64127;51.488;5.462;2024-01-16T03:21:41;2.30;99.90
75430;DHT22;64127;51.488;5.462;2024-01-16T03:24:14;2.30;99.90
75430;DHT22;64127;51.488;5.462;2024-01-16T03:26:46;2.30;99.90
75430;DHT22;64127;51.488;5.462;2024-01-16T03:29:18;2.40;99.90
75430;DHT22;64127;51.488;5.462;2024-01-16T03:31:50;2.40;99.90
75430;DHT22;64127;51.488;5.462;2024-01-16T03:34:23;2.40;99.90
75430;DHT22;64127;51.488;5.462;2024-01-16T03:36:56;2.40;99.90
75430;DHT22;64127;51.488;5.462;2024-01-16T03:39:28;2.40;99.90
75430;DHT22;64127;51.488;5.462;2024-01-16T03:42:00;2.40;99.90
75430;DHT22;64127;51.488;5.462;2024-01-16T03:44:32;2.40;99.90
75430;DHT22;64127;51.488;5.462;2024-01-16T03:47:04;2.30;99.90
75430;DHT22;64127;51.488;5.462;2024-01-16T03:49:36;2.40;99.90
75430;DHT22;64127;51.488;5.462;2024-01-16T03:52:08;2.30;99.90
75430;DHT22;64127;51.488;5.462;2024-01-16T03:54:40;2.30;99.90
75430;DHT22;64127;51.488;5.462;2024-01-16T03:57:12;2.30;99.90
75430;DHT22;64127;51.488;5.462;2024-01-16T03:59:44;2.30;99.90
75430;DHT22;64127;51.488;5.462;2024-01-16T04:02:16;2.30;99.90
75430;DHT22;64127;51.488;5.462;2024-01-16T04:04:48;2.20;99.90
75430;DHT22;64127;51.488;5.462;2024-01-16T04:07:23;2.20;99.90
75430;DHT22;64127;51.488;5.462;2024-01-16T04:09:56;2.20;99.90
75430;DHT22;64127;51.488;5.462;2024-01-16T04:12:28;2.20;99.90
75430;DHT22;64127;51.488;5.462;2024-01-16T04:15:00;2.20;99.90
75430;DHT22;64127;51.488;5.462;2024-01-16T04:17:32;2.20;99.90
75430;DHT22;64127;51.488;5.462;2024-01-16T04:20:05;2.20;99.90
75430;DHT22;64127;51.488;5.462;2024-01-16T04:22:39;2.10;99.90
75430;DHT22;64127;51.488;5.462;2024-01-16T04:25:11;2.10;99.90
75430;DHT22;64127;51.488;5.462;2024-01-16T04:27:43;2.10;99.90
75430;DHT22;64127;51.488;5.462;2024-01-16T04:30:15;2.10;99.90
75430;DHT22;64127;51.488;5.462;2024-01-16T04:32:47;2.10;99.90
75430;DHT22;64127;51.488;5.462;2024-01-16T04:35:19;2.00;99.90
75430;DHT22;64127;51.488;5.462;2024-01-16T04:37:51;2.00;99.90
75430;DHT22;64127;51.488;5.462;2024-01-16T04:40:23;2.00;99.90
75430;DHT22;64127;51.488;5.462;2024-01-16T04:42:55;2.00;99.90
75430;DHT22;64127;51.488;5.462;2024-01-16T04:45:27;1.90;99.90
75430;DHT22;64127;51.488;5.462;2024-01-16T04:47:59;1.90;99.90
75430;DHT22;64127;51.488;5.462;2024-01-16T04:50:32;1.90;99.90
75430;DHT22;64127;51.488;5.462;2024-01-16T04:53:04;1.90;99.90
75430;DHT22;64127;51.488;5.462;2024-01-16T04:55:36;1.80;99.90
75430;DHT22;64127;51.488;5.462;2024-01-16T04:58:08;1.80;99.90
75430;DHT22;64127;51.488;5.462;2024-01-16T05:00:41;1.80;99.90
75430;DHT22;64127;51.488;5.462;2024-01-16T05:03:13;1.80;99.90
75430;DHT22;64127;51.488;5.462;2024-01-16T05:05:45;1.80;99.90
75430;DHT22;64127;51.488;5.462;2024-01-16T05:08:17;1.80;99.90
75430;DHT22;64127;51.488;5.462;2024-01-16T05:10:50;1.70;99.90
75430;DHT22;64127;51.488;5.462;2024-01-16T05:13:22;1.70;99.90
75430;DHT22;64127;51.488;5.462;2024-01-16T05:15:54;1.70;99.90
75430;DHT22;64127;51.488;5.462;2024-01-16T05:18:25;1.70;99.90
75430;DHT22;64127;51.488;5.462;2024-01-16T05:20:58;1.70;99.90
75430;DHT22;64127;51.488;5.462;2024-01-16T05:23:31;1.70;99.90
75430;DHT22;64127;51.488;5.462;2024-01-16T05:26:03;1.70;99.90
75430;DHT22;64127;51.488;5.462;2024-01-16T05:28:35;1.70;99.90
75430;DHT22;64127;51.488;5.462;2024-01-16T05:31:07;1.70;99.90
75430;DHT22;64127;51.488;5.462;2024-01-16T05:33:39;1.70;99.90
75430;DHT22;64127;51.488;5.462;2024-01-16T05:36:12;1.70;99.90
75430;DHT22;64127;51.488;5.462;2024-01-16T05:38:44;1.70;99.90
75430;DHT22;64127;51.488;5.462;2024-01-16T05:41:16;1.70;99.90
75430;DHT22;64127;51.488;5.462;2024-01-16T05:43:48;1.70;99.90
75430;DHT22;64127;51.488;5.462;2024-01-16T05:46:20;1.70;99.90
75430;DHT22;64127;51.488;5.462;2024-01-16T05:48:52;1.60;99.90
75430;DHT22;64127;51.488;5.462;2024-01-16T05:51:28;1.60;99.90
75430;DHT22;64127;51.488;5.462;2024-01-16T05:54:01;1.60;99.90
75430;DHT22;64127;51.488;5.462;2024-01-16T05:56:33;1.60;99.90
75430;DHT22;64127;51.488;5.462;2024-01-16T05:59:06;1.50;99.90
75430;DHT22;64127;51.488;5.462;2024-01-16T06:01:38;1.50;99.90
75430;DHT22;64127;51.488;5.462;2024-01-16T06:04:10;1.50;99.90
75430;DHT22;64127;51.488;5.462;2024-01-16T06:06:45;1.50;99.90
75430;DHT22;64127;51.488;5.462;2024-01-16T06:09:19;1.50;99.90
75430;DHT22;64127;51.488;5.462;2024-01-16T06:11:51;1.50;99.90
75430;DHT22;64127;51.488;5.462;2024-01-16T06:14:23;1.40;99.90
75430;DHT22;64127;51.488;5.462;2024-01-16T06:16:55;1.40;99.90
75430;DHT22;64127;51.488;5.462;2024-01-16T06:19:28;1.40;99.90
75430;DHT22;64127;51.488;5.462;2024-01-16T06:22:00;1.30;99.90
75430;DHT22;64127;51.488;5.462;2024-01-16T06:24:32;1.30;99.90
75430;DHT22;64127;51.488;5.462;2024-01-16T06:27:08;1.30;99.90
75430;DHT22;64127;51.488;5.462;2024-01-16T06:29:40;1.30;99.90
75430;DHT22;64127;51.488;5.462;2024-01-16T06:32:12;1.30;99.90
75430;DHT22;64127;51.488;5.462;2024-01-16T06:34:44;1.30;99.90
75430;DHT22;64127;51.488;5.462;2024-01-16T06:37:16;1.30;99.90
75430;DHT22;64127;51.488;5.462;2024-01-16T06:39:48;1.30;99.90
75430;DHT22;64127;51.488;5.462;2024-01-16T06:42:20;1.30;99.90
75430;DHT22;64127;51.488;5.462;2024-01-16T06:44:52;1.20;99.90
75430;DHT22;64127;51.488;5.462;2024-01-16T06:47:24;1.20;99.90
75430;DHT22;64127;51.488;5.462;2024-01-16T06:49:56;1.20;99.90
75430;DHT22;64127;51.488;5.462;2024-01-16T06:52:29;1.10;99.90
75430;DHT22;64127;51.488;5.462;2024-01-16T06:55:01;1.10;99.90
75430;DHT22;64127;51.488;5.462;2024-01-16T06:57:33;1.10;99.90
75430;DHT22;64127;51.488;5.462;2024-01-16T07:00:05;1.10;99.90
75430;DHT22;64127;51.488;5.462;2024-01-16T07:02:39;1.10;99.90
75430;DHT22;64127;51.488;5.462;2024-01-16T07:05:11;1.00;99.90
75430;DHT22;64127;51.488;5.462;2024-01-16T07:07:44;1.10;99.90
75430;DHT22;64127;51.488;5.462;2024-01-16T07:10:17;1.00;99.90
75430;DHT22;64127;51.488;5.462;2024-01-16T07:12:53;1.10;99.90
75430;DHT22;64127;51.488;5.462;2024-01-16T07:15:27;1.00;99.90
75430;DHT22;64127;51.488;5.462;2024-01-16T07:17:59;1.00;99.90
75430;DHT22;64127;51.488;5.462;2024-01-16T07:20:31;1.00;99.90
75430;DHT22;64127;51.488;5.462;2024-01-16T07:23:04;1.00;99.90
75430;DHT22;64127;51.488;5.462;2024-01-16T07:25:36;1.00;99.90
75430;DHT22;64127;51.488;5.462;2024-01-16T07:28:08;1.00;99.90
75430;DHT22;64127;51.488;5.462;2024-01-16T07:30:40;1.10;99.90
75430;DHT22;64127;51.488;5.462;2024-01-16T07:33:12;1.00;99.90
75430;DHT22;64127;51.488;5.462;2024-01-16T07:35:44;1.00;99.90
75430;DHT22;64127;51.488;5.462;2024-01-16T07:38:19;1.00;99.90
75430;DHT22;64127;51.488;5.462;2024-01-16T07:40:51;1.00;99.90
75430;DHT22;64127;51.488;5.462;2024-01-16T07:43:24;1.10;99.90
75430;DHT22;64127;51.488;5.462;2024-01-16T07:45:56;1.00;99.90
75430;DHT22;64127;51.488;5.462;2024-01-16T07:48:29;1.00;99.90
75430;DHT22;64127;51.488;5.462;2024-01-16T07:51:01;1.00;99.90
75430;DHT22;64127;51.488;5.462;2024-01-16T07:53:33;1.00;99.90
75430;DHT22;64127;51.488;5.462;2024-01-16T07:56:05;1.00;99.90
75430;DHT22;64127;51.488;5.462;2024-01-16T07:58:38;1.00;99.90
75430;DHT22;64127;51.488;5.462;2024-01-16T08:01:10;1.00;99.90
75430;DHT22;64127;51.488;5.462;2024-01-16T08:03:42;1.00;99.90
75430;DHT22;64127;51.488;5.462;2024-01-16T08:06:14;1.00;99.90
75430;DHT22;64127;51.488;5.462;2024-01-16T08:08:46;1.00;99.90
75430;DHT22;64127;51.488;5.462;2024-01-16T08:11:19;1.00;99.90
75430;DHT22;64127;51.488;5.462;2024-01-16T08:13:51;1.00;99.90
75430;DHT22;64127;51.488;5.462;2024-01-16T08:16:23;1.00;99.90
75430;DHT22;64127;51.488;5.462;2024-01-16T08:18:55;1.00;99.90
75430;DHT22;64127;51.488;5.462;2024-01-16T08:21:28;1.00;99.90
75430;DHT22;64127;51.488;5.462;2024-01-16T08:24:00;1.10;99.90
75430;DHT22;64127;51.488;5.462;2024-01-16T08:26:32;1.10;99.90
75430;DHT22;64127;51.488;5.462;2024-01-16T08:29:04;1.10;99.90
75430;DHT22;64127;51.488;5.462;2024-01-16T08:31:36;1.10;99.90
75430;DHT22;64127;51.488;5.462;2024-01-16T08:34:09;1.00;99.90
75430;DHT22;64127;51.488;5.462;2024-01-16T08:36:41;1.10;99.90
75430;DHT22;64127;51.488;5.462;2024-01-16T08:39:13;1.10;99.90
75430;DHT22;64127;51.488;5.462;2024-01-16T08:41:45;1.10;99.90
75430;DHT22;64127;51.488;5.462;2024-01-16T08:44:17;1.10;99.90
75430;DHT22;64127;51.488;5.462;2024-01-16T08:46:49;1.10;99.90
75430;DHT22;64127;51.488;5.462;2024-01-16T08:49:21;1.10;99.90
75430;DHT22;64127;51.488;5.462;2024-01-16T08:51:53;1.10;99.90
75430;DHT22;64127;51.488;5.462;2024-01-16T08:54:25;1.10;99.90
75430;DHT22;64127;51.488;5.462;2024-01-16T08:56:58;1.10;99.90
75430;DHT22;64127;51.488;5.462;2024-01-16T08:59:30;1.10;99.90
75430;DHT22;64127;51.488;5.462;2024-01-16T09:02:03;1.10;99.90
75430;DHT22;64127;51.488;5.462;2024-01-16T09:04:35;1.20;99.90
75430;DHT22;64127;51.488;5.462;2024-01-16T09:07:07;1.20;99.90
75430;DHT22;64127;51.488;5.462;2024-01-16T09:09:40;1.20;99.90
75430;DHT22;64127;51.488;5.462;2024-01-16T09:12:13;1.20;99.90
75430;DHT22;64127;51.488;5.462;2024-01-16T09:14:45;1.20;99.90
75430;DHT22;64127;51.488;5.462;2024-01-16T09:17:17;1.20;99.90
75430;DHT22;64127;51.488;5.462;2024-01-16T09:19:49;1.30;99.90
75430;DHT22;64127;51.488;5.462;2024-01-16T09:22:21;1.30;99.90
75430;DHT22;64127;51.488;5.462;2024-01-16T09:24:53;1.30;99.90
75430;DHT22;64127;51.488;5.462;2024-01-16T09:27:25;1.30;99.90
75430;DHT22;64127;51.488;5.462;2024-01-16T09:29:57;1.30;99.90
75430;DHT22;64127;51.488;5.462;2024-01-16T09:32:29;1.30;99.90
75430;DHT22;64127;51.488;5.462;2024-01-16T09:35:02;1.40;99.90
75430;DHT22;64127;51.488;5.462;2024-01-16T09:37:36;1.40;99.90
75430;DHT22;64127;51.488;5.462;2024-01-16T09:40:08;1.40;99.90
75430;DHT22;64127;51.488;5.462;2024-01-16T09:42:41;1.40;99.90
75430;DHT22;64127;51.488;5.462;2024-01-16T09:45:18;1.40;99.90
75430;DHT22;64127;51.488;5.462;2024-01-16T09:47:52;1.40;99.90
75430;DHT22;64127;51.488;5.462;2024-01-16T09:50:25;1.50;99.90
75430;DHT22;64127;51.488;5.462;2024-01-16T09:52:57;1.50;99.90
75430;DHT22;64127;51.488;5.462;2024-01-16T09:55:31;1.60;99.90
75430;DHT22;64127;51.488;5.462;2024-01-16T09:58:05;1.60;99.90
75430;DHT22;64127;51.488;5.462;2024-01-16T10:00:43;1.70;99.90
75430;DHT22;64127;51.488;5.462;2024-01-16T10:03:16;1.80;99.90
75430;DHT22;64127;51.488;5.462;2024-01-16T10:05:49;1.90;99.90
75430;DHT22;64127;51.488;5.462;2024-01-16T10:08:21;2.10;99.90
75430;DHT22;64127;51.488;5.462;2024-01-16T10:10:53;2.30;99.90
75430;DHT22;64127;51.488;5.462;2024-01-16T10:13:26;2.70;99.90
75430;DHT22;64127;51.488;5.462;2024-01-16T10:15:58;3.10;99.90
75430;DHT22;64127;51.488;5.462;2024-01-16T10:18:30;3.40;99.90
75430;DHT22;64127;51.488;5.462;2024-01-16T10:21:03;3.50;99.90
75430;DHT22;64127;51.488;5.462;2024-01-16T10:23:36;3.70;99.90
75430;DHT22;64127;51.488;5.462;2024-01-16T10:26:13;4.10;99.90
75430;DHT22;64127;51.488;5.462;2024-01-16T10:28:50;4.60;99.90
75430;DHT22;64127;51.488;5.462;2024-01-16T10:31:29;5.20;99.90
75430;DHT22;64127;51.488;5.462;2024-01-16T10:34:07;5.70;99.90
75430;DHT22;64127;51.488;5.462;2024-01-16T10:36:58;6.10;99.90
75430;DHT22;64127;51.488;5.462;2024-01-16T10:39:35;6.60;99.90
75430;DHT22;64127;51.488;5.462;2024-01-16T10:42:15;7.10;99.90
75430;DHT22;64127;51.488;5.462;2024-01-16T10:44:56;7.40;99.90
75430;DHT22;64127;51.488;5.462;2024-01-16T10:47:28;7.60;99.90
75430;DHT22;64127;51.488;5.462;2024-01-16T10:50:01;7.70;99.90
75430;DHT22;64127;51.488;5.462;2024-01-16T10:52:33;7.90;99.90
75430;DHT22;64127;51.488;5.462;2024-01-16T10:55:08;8.00;99.90
75430;DHT22;64127;51.488;5.462;2024-01-16T10:57:41;8.20;99.90
75430;DHT22;64127;51.488;5.462;2024-01-16T11:00:14;8.30;99.90
75430;DHT22;64127;51.488;5.462;2024-01-16T11:03:04;8.30;99.90
75430;DHT22;64127;51.488;5.462;2024-01-16T11:05:39;8.20;99.90
75430;DHT22;64127;51.488;5.462;2024-01-16T11:08:13;8.30;99.90
75430;DHT22;64127;51.488;5.462;2024-01-16T11:10:49;8.50;99.90
75430;DHT22;64127;51.488;5.462;2024-01-16T11:13:22;8.60;99.90
75430;DHT22;64127;51.488;5.462;2024-01-16T11:15:56;8.70;99.90
75430;DHT22;64127;51.488;5.462;2024-01-16T11:18:31;8.90;99.90
75430;DHT22;64127;51.488;5.462;2024-01-16T11:21:15;9.00;99.90
75430;DHT22;64127;51.488;5.462;2024-01-16T11:23:50;9.30;99.90
75430;DHT22;64127;51.488;5.462;2024-01-16T11:26:34;9.30;99.90
75430;DHT22;64127;51.488;5.462;2024-01-16T11:32:04;9.40;99.90
75430;DHT22;64127;51.488;5.462;2024-01-16T11:34:57;9.50;99.90
75430;DHT22;64127;51.488;5.462;2024-01-16T11:37:31;9.50;99.90
75430;DHT22;64127;51.488;5.462;2024-01-16T11:42:53;9.50;99.40
75430;DHT22;64127;51.488;5.462;2024-01-16T11:48:12;9.40;99.30
75430;DHT22;64127;51.488;5.462;2024-01-16T11:50:46;9.40;98.80
75430;DHT22;64127;51.488;5.462;2024-01-16T11:53:31;9.50;98.90
75430;DHT22;64127;51.488;5.462;2024-01-16T11:56:39;9.80;98.80
75430;DHT22;64127;51.488;5.462;2024-01-16T12:00:03;9.90;98.20
75430;DHT22;64127;51.488;5.462;2024-01-16T12:05:24;9.60;97.40
75430;DHT22;64127;51.488;5.462;2024-01-16T12:07:58;9.40;97.50
75430;DHT22;64127;51.488;5.462;2024-01-16T12:10:30;9.40;97.20
75430;DHT22;64127;51.488;5.462;2024-01-16T12:13:02;9.40;97.20
75430;DHT22;64127;51.488;5.462;2024-01-16T12:15:36;9.30;96.70
75430;DHT22;64127;51.488;5.462;2024-01-16T12:18:08;9.30;96.50
75430;DHT22;64127;51.488;5.462;2024-01-16T12:20:57;9.20;96.50
75430;DHT22;64127;51.488;5.462;2024-01-16T12:23:30;9.10;96.40
75430;DHT22;64127;51.488;5.462;2024-01-16T12:26:02;9.20;95.80
75430;DHT22;64127;51.488;5.462;2024-01-16T12:28:35;9.20;95.70
75430;DHT22;64127;51.488;5.462;2024-01-16T12:31:07;9.40;96.20
75430;DHT22;64127;51.488;5.462;2024-01-16T12:33:39;9.60;95.90
75430;DHT22;64127;51.488;5.462;2024-01-16T12:36:19;9.80;95.40
75430;DHT22;64127;51.488;5.462;2024-01-16T12:38:54;9.80;94.40
75430;DHT22;64127;51.488;5.462;2024-01-16T12:41:32;9.70;94.40
75430;DHT22;64127;51.488;5.462;2024-01-16T12:44:13;9.70;94.10
75430;DHT22;64127;51.488;5.462;2024-01-16T12:46:55;9.90;93.90
75430;DHT22;64127;51.488;5.462;2024-01-16T12:49:28;10.00;92.90
75430;DHT22;64127;51.488;5.462;2024-01-16T12:52:22;10.30;92.60
75430;DHT22;64127;51.488;5.462;2024-01-16T12:55:01;10.50;92.10
75430;DHT22;64127;51.488;5.462;2024-01-16T12:57:36;10.70;92.40
75430;DHT22;64127;51.488;5.462;2024-01-16T13:00:21;10.80;91.40
75430;DHT22;64127;51.488;5.462;2024-01-16T13:02:54;11.00;91.20
75430;DHT22;64127;51.488;5.462;2024-01-16T13:05:30;11.00;90.60
75430;DHT22;64127;51.488;5.462;2024-01-16T13:08:04;10.90;90.40
75430;DHT22;64127;51.488;5.462;2024-01-16T13:10:36;10.80;90.90
75430;DHT22;64127;51.488;5.462;2024-01-16T13:13:17;10.70;90.30
75430;DHT22;64127;51.488;5.462;2024-01-16T13:15:50;10.60;89.20
75430;DHT22;64127;51.488;5.462;2024-01-16T13:18:23;10.50;89.10
75430;DHT22;64127;51.488;5.462;2024-01-16T13:20:57;10.30;88.50
75430;DHT22;64127;51.488;5.462;2024-01-16T13:23:31;10.10;89.50
75430;DHT22;64127;51.488;5.462;2024-01-16T13:26:03;10.10;89.90
75430;DHT22;64127;51.488;5.462;2024-01-16T13:28:36;10.10;89.40
75430;DHT22;64127;51.488;5.462;2024-01-16T13:31:08;10.00;89.50
75430;DHT22;64127;51.488;5.462;2024-01-16T13:33:40;10.00;88.60
75430;DHT22;64127;51.488;5.462;2024-01-16T13:36:12;9.90;89.70
75430;DHT22;64127;51.488;5.462;2024-01-16T13:38:44;9.80;90.10
75430;DHT22;64127;51.488;5.462;2024-01-16T13:41:17;9.90;89.20
75430;DHT22;64127;51.488;5.462;2024-01-16T13:43:49;9.90;87.90
75430;DHT22;64127;51.488;5.462;2024-01-16T13:46:21;9.90;87.40
75430;DHT22;64127;51.488;5.462;2024-01-16T13:49:13;10.10;86.30
75430;DHT22;64127;51.488;5.462;2024-01-16T13:51:45;10.30;86.00
75430;DHT22;64127;51.488;5.462;2024-01-16T13:54:17;10.60;85.40
75430;DHT22;64127;51.488;5.462;2024-01-16T13:56:49;10.80;84.10
75430;DHT22;64127;51.488;5.462;2024-01-16T13:59:37;11.00;83.00
75430;DHT22;64127;51.488;5.462;2024-01-16T14:02:10;10.80;82.20
75430;DHT22;64127;51.488;5.462;2024-01-16T14:04:43;9.90;84.20
75430;DHT22;64127;51.488;5.462;2024-01-16T14:07:15;8.90;85.90
75430;DHT22;64127;51.488;5.462;2024-01-16T14:09:47;8.10;87.80
75430;DHT22;64127;51.488;5.462;2024-01-16T14:12:20;7.30;89.60
75430;DHT22;64127;51.488;5.462;2024-01-16T14:14:52;6.70;90.50
75430;DHT22;64127;51.488;5.462;2024-01-16T14:17:24;6.20;91.20
75430;DHT22;64127;51.488;5.462;2024-01-16T14:19:58;5.90;92.00
75430;DHT22;64127;51.488;5.462;2024-01-16T14:22:30;5.60;92.70
75430;DHT22;64127;51.488;5.462;2024-01-16T14:25:03;5.50;93.50
75430;DHT22;64127;51.488;5.462;2024-01-16T14:27:43;5.40;93.90
75430;DHT22;64127;51.488;5.462;2024-01-16T14:30:16;5.30;94.10
75430;DHT22;64127;51.488;5.462;2024-01-16T14:32:48;5.20;94.30
75430;DHT22;64127;51.488;5.462;2024-01-16T14:35:21;5.10;94.60
75430;DHT22;64127;51.488;5.462;2024-01-16T14:37:53;5.00;95.00
75430;DHT22;64127;51.488;5.462;2024-01-16T14:40:25;4.90;95.20
75430;DHT22;64127;51.488;5.462;2024-01-16T14:42:58;4.80;95.40
75430;DHT22;64127;51.488;5.462;2024-01-16T14:45:31;4.80;95.70
75430;DHT22;64127;51.488;5.462;2024-01-16T14:48:03;4.80;96.00
75430;DHT22;64127;51.488;5.462;2024-01-16T14:50:37;4.70;96.30
75430;DHT22;64127;51.488;5.462;2024-01-16T14:53:09;4.70;96.50
75430;DHT22;64127;51.488;5.462;2024-01-16T14:55:41;4.60;96.50
75430;DHT22;64127;51.488;5.462;2024-01-16T14:58:13;4.60;96.80
75430;DHT22;64127;51.488;5.462;2024-01-16T15:00:45;4.60;97.10
75430;DHT22;64127;51.488;5.462;2024-01-16T15:03:20;4.60;97.40
75430;DHT22;64127;51.488;5.462;2024-01-16T15:05:52;4.50;97.50
75430;DHT22;64127;51.488;5.462;2024-01-16T15:08:26;4.50;97.70
75430;DHT22;64127;51.488;5.462;2024-01-16T15:11:00;4.40;98.00
75430;DHT22;64127;51.488;5.462;2024-01-16T15:13:32;4.40;98.30
75430;DHT22;64127;51.488;5.462;2024-01-16T15:16:04;4.40;98.50
75430;DHT22;64127;51.488;5.462;2024-01-16T15:18:36;4.30;98.70
75430;DHT22;64127;51.488;5.462;2024-01-16T15:21:08;4.30;98.70
75430;DHT22;64127;51.488;5.462;2024-01-16T15:23:40;4.20;98.90
75430;DHT22;64127;51.488;5.462;2024-01-16T15:26:12;4.20;99.30
75430;DHT22;64127;51.488;5.462;2024-01-16T15:28:50;4.20;99.30
75430;DHT22;64127;51.488;5.462;2024-01-16T15:31:22;4.10;99.40
75430;DHT22;64127;51.488;5.462;2024-01-16T15:33:54;4.00;99.90
75430;DHT22;64127;51.488;5.462;2024-01-16T15:36:27;4.00;99.80
75430;DHT22;64127;51.488;5.462;2024-01-16T15:38:59;3.90;99.90
75430;DHT22;64127;51.488;5.462;2024-01-16T15:41:33;3.90;99.90
75430;DHT22;64127;51.488;5.462;2024-01-16T15:44:05;3.80;99.90
75430;DHT22;64127;51.488;5.462;2024-01-16T15:49:32;3.70;99.90
75430;DHT22;64127;51.488;5.462;2024-01-16T15:52:04;3.70;99.90
75430;DHT22;64127;51.488;5.462;2024-01-16T15:54:37;3.70;99.90
75430;DHT22;64127;51.488;5.462;2024-01-16T15:57:09;3.70;99.90
75430;DHT22;64127;51.488;5.462;2024-01-16T15:59:42;3.70;99.90
75430;DHT22;64127;51.488;5.462;2024-01-16T16:02:14;3.60;99.90
75430;DHT22;64127;51.488;5.462;2024-01-16T16:04:46;3.60;99.90
75430;DHT22;64127;51.488;5.462;2024-01-16T16:07:18;3.50;99.90
75430;DHT22;64127;51.488;5.462;2024-01-16T16:09:50;3.50;99.90
75430;DHT22;64127;51.488;5.462;2024-01-16T16:12:22;3.40;99.90
75430;DHT22;64127;51.488;5.462;2024-01-16T16:14:54;3.40;99.90
75430;DHT22;64127;51.488;5.462;2024-01-16T16:17:26;3.40;99.90
75430;DHT22;64127;51.488;5.462;2024-01-16T16:19:58;3.30;99.90
75430;DHT22;64127;51.488;5.462;2024-01-16T16:22:30;3.20;99.90
75430;DHT22;64127;51.488;5.462;2024-01-16T16:25:02;3.20;99.90
75430;DHT22;64127;51.488;5.462;2024-01-16T16:27:36;3.20;99.90
75430;DHT22;64127;51.488;5.462;2024-01-16T16:30:08;3.20;99.90
75430;DHT22;64127;51.488;5.462;2024-01-16T16:32:42;3.10;99.90
75430;DHT22;64127;51.488;5.462;2024-01-16T16:35:14;3.10;99.90
75430;DHT22;64127;51.488;5.462;2024-01-16T16:37:46;3.10;99.90